Weather at Gothenburg-Landvetter Airport

Public forecast

Using degrees Celsius for public forecast. Weather courtesy of forecast.io.

Current aviation weather report (METAR) for Gothenburg-Landvetter Airport

2024/05/18 08:50 (retrieved 27 minutes ago)

ESGG 180850Z 08008KT 050V110 CAVOK 20/04 Q1017

Aviation forecast (TAF) for Gothenburg-Landvetter Airport

2024/05/18 09:18 (retrieved 0 seconds ago)

TAF TAF ESGG 180830Z 1809/1909 12007KT CAVOK PROB40 1815/1818 29010KT